WEATHER DATA

TODAY
Time Temp. Dewp. Hum. Wind dir Wind speed Wind gust Bar. 1h Prec. 24h Prec.
00:05 12.3 10 86 348 5 5.8 1025.4 0.0000 0.0000
00:16 12.2 9.9 86 348 5 6.1 1025.3 0.0000 0.0000
00:25 12.1 9.8 86 346 4.4 6.1 1025.4 0.0000 0.0000
00:38 11.8 9.5 86 338 4.2 6.1 1025.3 0.0000 0.0000
00:58 11.7 9.6 87 347 5 6.1 1025.2 0.0000 0.0000
01:08 11.7 9.6 87 347 5.3 6.7 1025.1 0.0000 0.0000
01:18 11.6 9.5 87 344 5 6.7 1025.1 0.0000 0.0000
01:28 11.6 9.5 87 346 5 6.7 1025.1 0.0000 0.0000
01:38 11.6 9.5 87 345 5 6.7 1025.3 0.0000 0.0000
01:49 11.5 9.4 87 346 5 6.1 1025.3 0.0000 0.0000
01:58 11.4 9.3 87 348 5.3 6.7 1025.2 0.0000 0.0000
02:08 11.4 9.3 87 349 5.3 6.7 1025 0.0000 0.0000
02:19 11.3 9.2 87 348 5.3 7.2 1025 0.0000 0.0000
02:29 11.1 9 87 348 5.3 6.7 1025.1 0.0000 0.0000
02:39 10.9 8.8 87 350 5.3 6.9 1024.8 0.0000 0.0000
02:48 10.9 8.8 87 348 5.3 6.7 1024.9 0.0000 0.0000
02:59 10.8 8.7 87 349 5.3 6.9 1024.8 0.0000 0.0000
03:09 10.6 8.5 87 348 5.3 6.7 1024.8 0.0000 0.0000
03:19 10.5 8.6 88 349 5.3 6.7 1024.6 0.0000 0.0000
03:29 10.6 8.9 89 348 5.3 6.7 1024.7 0.0000 0.0000
03:39 10.6 8.9 89 350 5.3 7.2 1024.9 0.0000 0.0000
03:49 10.7 9 89 349 5 6.9 1024.8 0.0000 0.0000
03:59 10.6 8.7 88 348 5.3 6.7 1024.8 0.0000 0.0000
04:10 10.5 8.6 88 354 5 6.7 1024.7 0.0000 0.0000
04:19 10.4 8.7 89 352 5.3 6.9 1024.8 0.0000 0.0000
04:32 10.3 8.4 88 352 5.3 6.9 1024.9 0.0000 0.0000
04:42 10.3 8.6 89 353 5.3 6.9 1025 0.0000 0.0000
04:52 10.2 8.3 88 354 5.3 6.7 1025 0.0000 0.0000
05:02 10.1 8.4 89 353 5 6.9 1025 0.0000 0.0000
05:12 10 8.3 89 354 5 6.9 1025 0.0000 0.0000
05:22 10.1 8.5 90 352 5.3 6.7 1025 0.0000 0.0000
05:32 10.3 8.7 90 353 5 6.9 1025 0.0000 0.0000
05:42 10.4 8.8 90 352 5.3 6.9 1025 0.0000 0.0000
05:52 10.4 8.7 89 350 5.3 6.7 1025 0.0000 0.0000
06:02 10.4 8.7 89 349 5.3 6.1 1024.9 0.0000 0.0000
06:13 10.4 8.7 89 347 5 6.7 1024.9 0.0000 0.0000
06:22 10.4 8.7 89 347 5 6.7 1025.1 0.0000 0.0000
06:32 10.3 8.4 88 351 5.3 7.2 1025 0.0000 0.0000
06:43 10.2 8.5 89 352 5.3 6.9 1025 0.0000 0.0000
06:53 10.3 8.6 89 346 5.3 6.9 1025.1 0.0000 0.0000
07:02 10.3 8.6 89 347 5 6.9 1024.8 0.0000 0.0000
07:12 10.4 8.7 89 346 5 6.1 1025.1 0.0000 0.0000
07:23 10.5 8.8 89 346 4.4 5.6 1025.2 0.0000 0.0000
07:33 10.7 9 89 341 4.2 5.6 1025.2 0.0000 0.0000
07:43 11 9.3 89 329 3.3 5 1025.1 0.0000 0.0000
07:53 11.3 9.2 87 287 2.5 5.3 1025.3 0.0000 0.0000
08:03 11.5 9.2 86 280 2.2 4.4 1025.4 0.0000 0.0000
08:13 11.7 9.3 85 252 1.9 4.4 1025.2 0.0000 0.0000
08:23 11.9 9.5 85 270 2.2 4.2 1025.5 0.0000 0.0000
08:34 12.3 9.9 85 248 1.9 3.9 1025.4 0.0000 0.0000
08:43 12.8 10 83 253 1.9 3.9 1025.3 0.0000 0.0000
08:53 13.4 10.4 82 238 1.9 4.2 1025.5 0.0000 0.0000
09:04 13.9 10.7 81 240 1.9 3.6 1025.4 0.0000 0.0000
09:14 14.6 11 79 228 1.7 3.1 1025.3 0.0000 0.0000
09:23 15.2 11.2 77 245 1.7 3.3 1025.4 0.0000 0.0000
09:33 15.9 11.7 76 235 1.7 2.5 1025.4 0.0000 0.0000
09:44 16.6 12.2 75 227 1.7 2.2 1025.6 0.0000 0.0000
09:54 17.3 12.6 74 228 1.7 2.2 1025.5 0.0000 0.0000
10:04 17.9 13 73 270 1.9 3.6 1025.5 0.0000 0.0000
10:14 17.9 13 73 270 1.9 3.6 1025.5 0.0000 0.0000
10:24 18.1 13.2 73 305 2.2 3.9 1025.7 0.0000 0.0000
10:34 18.2 13.1 72 305 2.2 3.9 1025.6 0.0000 0.0000
10:44 18.3 13.2 72 303 2.2 3.9 1025.5 0.0000 0.0000
10:55 18.3 13.2 72 317 2.2 3.9 1025.4 0.0000 0.0000
11:04 18.3 13.4 73 291 2.2 3.9 1025.5 0.0000 0.0000
11:14 18.3 13.4 73 270 1.9 3.9 1025.2 0.0000 0.0000
11:25 18.4 13.5 73 315 2.5 4.2 1025.1 0.0000 0.0000
11:35 18.5 13.6 73 317 2.5 4.2 1025.1 0.0000 0.0000
11:45 18.5 13.6 73 325 2.5 4.2 1025 0.0000 0.0000
11:54 18.6 13.7 73 330 3.1 3.9 1025.1 0.0000 0.0000
12:05 18.8 13.9 73 318 2.5 3.9 1024.9 0.0000 0.0000
12:15 18.8 14.1 74 329 2.5 4.2 1024.9 0.0000 0.0000
12:25 19 14.1 73 318 2.5 4.2 1024.6 0.0000 0.0000
12:35 19 14.1 73 320 2.5 4.2 1024.5 0.0000 0.0000
12:45 19 14.1 73 319 2.5 3.9 1024.4 0.0000 0.0000
12:55 19 14.1 73 332 3.1 4.2 1024.3 0.0000 0.0000
13:05 19.1 14.4 74 323 2.5 3.9 1024.2 0.0000 0.0000
13:16 19.1 14.6 75 343 3.3 4.2 1024.2 0.0000 0.0000
13:25 19.2 14.9 76 341 3.1 3.9 1024.1 0.0000 0.0000
13:35 19.2 14.9 76 330 3.1 4.2 1024 0.0000 0.0000
13:46 19.2 15.1 77 347 3.3 4.2 1024 0.0000 0.0000
13:56 19.3 15.2 77 341 3.3 4.4 1024 0.0000 0.0000
14:06 19.4 15.3 77 354 3.6 4.4 1024 0.0000 0.0000
14:15 19.5 15.4 77 357 3.9 5 1023.8 0.0000 0.0000
14:26 19.6 15.3 76 1 4.2 5.3 1023.6 0.0000 0.0000
14:36 19.6 15.3 76 0 4.2 5 1023.6 0.0000 0.0000
14:46 19.6 15.1 75 358 3.9 5 1023.5 0.0000 0.0000
14:56 19.5 15 75 354 3.6 4.4 1023.6 0.0000 0.0000
15:06 19.4 15.1 76 353 3.9 4.4 1023.5 0.0000 0.0000
15:16 19.3 15 76 351 3.6 4.2 1023.6 0.0000 0.0000
15:26 19.1 14.8 76 340 3.1 4.2 1023.6 0.0000 0.0000
15:37 19 14.9 77 334 2.5 4.2 1023.5 0.0000 0.0000
15:46 18.7 14.6 77 325 2.5 4.2 1023.5 0.0000 0.0000
15:56 18.4 14.5 78 317 2.2 3.9 1023.4 0.0000 0.0000
16:07 18.1 14.6 80 293 2.2 3.9 1023.2 0.0000 0.0000
16:17 18 14.5 80 303 2.2 3.9 1023.2 0.0000 0.0000
16:27 17.8 14.5 81 345 3.1 3.9 1023.2 0.0000 0.0000

DAY STATISTIC

2020-10-31
TEMPERATURE
AVERAGE
14.4
HIGH
19.6
14:26
LOW
10.0
05:12
PRESSURE
AVERAGE
1024.8
HIGH
1025.7
10:24
LOW
1023.2
16:07
DEWPOINT
AVERAGE
11.3
HIGH
15.4
14:15
LOW
8.3
04:52
HUMIDITY
AVERAGE
82
HIGH
90
05:22
LOW
72
10:34
WIND SPEED
AVERAGE
3.7
HIGH
5.3
01:08
WIND GUST
AVERAGE
5.2
HIGH
7.2
02:19
WIND DIRECTION
PREVAILING
N
59.8%
N
59.8
NE
0.0
E
0.0
SE
0.0
S
0.0
SW
7.2
W
10.3
NW
22.7
PRECIPITATION
RAIN HOUR
0.0
RAIN DAY
0.0
TEMPERATURE (°C)
LOW
10.0
HIGH
19.6
AVERAGE
14.4
PRESSURE (hpa)
LOW
1023.2
HIGH
1025.7
AVERAGE
1024.8
DEVICE